^^
Station Historical Data
 
Daily Summary for July 20, 2018 Units:  English    Metric   Both
« Previous Day
Next Day »
Daily Weekly Monthly Yearly Custom
  Current: High: Low: Average:
Temperature: 77.7 °F TemperatureF °F 76.8 °F 76.6 °F
Dew Point: 75.9 °F DewpointF °F 74.8 °F 74.6 °F
Humidity: 94% Humidity% 92% 93%
Wind Speed: 0.0mph WindSpeedMPHmph 0.0mph 0mph
Wind Gust: 0.0mph WindSpeedGustMPHmph - -
WindCalm - - SSW
Pressure: 29.96 in PressureIn in 29.93 in -
Precipitation: 0.01 in      
Historical Graphs
 
 
Tabular Data for July 20, 2018
Time Temperature Dew Point Pressure Wind Wind Speed Wind Gust Humidity Rainfall Rate (Hourly) solar
TemperatureF °F DewpointF °F PressureIn in Calm     Humidity% HourlyPrecipIn in SolarRadiationWatts/m^2 W/m2
00:04 78.4 °F 75.9 °F 29.98 in Calm     92% 0.01 in 3.00 W/m2
00:09 78.4 °F 75.9 °F 29.98 in Calm     92% 0.01 in 3.00 W/m2
00:14 78.4 °F 75.9 °F 29.98 in Calm     92% 0.01 in 3.00 W/m2
00:19 78.4 °F 75.9 °F 29.98 in Calm     92% 0.01 in 3.00 W/m2
00:24 78.4 °F 75.9 °F 29.98 in Calm     92% 0.01 in 3.00 W/m2
00:29 78.4 °F 75.9 °F 29.98 in Calm     92% 0.01 in 3.00 W/m2
00:34 78.4 °F 75.9 °F 29.98 in Calm     92% 0.01 in 3.00 W/m2
00:39 78.3 °F 75.7 °F 29.98 in Calm     92% 0.01 in 3.00 W/m2
00:44 78.3 °F 75.7 °F 29.98 in Calm     92% 0.01 in 3.00 W/m2
00:49 78.3 °F 75.7 °F 29.98 in Calm     92% 0.01 in 3.00 W/m2
00:54 78.3 °F 75.7 °F 29.98 in Calm     92% 0.01 in 3.00 W/m2
00:59 78.3 °F 75.7 °F 29.98 in Calm     92% 0.00 in 3.00 W/m2
01:04 78.1 °F 75.6 °F 29.97 in Calm     92% 0.00 in 3.00 W/m2
01:09 77.9 °F 75.4 °F 29.98 in Calm     92% 0.00 in 3.00 W/m2
01:14 77.7 °F 75.2 °F 29.97 in Calm     92% 0.00 in 3.00 W/m2
01:19 77.7 °F 75.2 °F 29.97 in Calm     92% 0.00 in 3.00 W/m2
01:24 77.7 °F 75.2 °F 29.97 in Calm     92% 0.00 in 3.00 W/m2
01:29 77.7 °F 75.2 °F 29.97 in Calm     92% 0.00 in 3.00 W/m2
01:34 77.7 °F 75.2 °F 29.97 in Calm     92% 0.00 in 3.00 W/m2
01:39 77.7 °F 75.6 °F 29.97 in Calm     93% 0.00 in 3.00 W/m2
01:44 77.7 °F 75.6 °F 29.96 in Calm     93% 0.00 in 3.00 W/m2
01:49 77.7 °F 75.6 °F 29.96 in Calm     93% 0.00 in 3.00 W/m2
01:54 77.7 °F 75.6 °F 29.96 in Calm     93% 0.00 in 3.00 W/m2
01:59 77.5 °F 75.4 °F 29.96 in Calm     93% 0.00 in 3.00 W/m2
02:04 77.5 °F 75.4 °F 29.96 in Calm     93% 0.00 in 3.00 W/m2
02:09 77.5 °F 75.4 °F 29.97 in Calm     93% 0.00 in 3.00 W/m2
02:14 77.5 °F 75.4 °F 29.96 in Calm     93% 0.00 in 3.00 W/m2
02:19 77.5 °F 75.4 °F 29.96 in Calm     93% 0.00 in 3.00 W/m2
02:24 77.5 °F 75.4 °F 29.96 in Calm     93% 0.00 in 3.00 W/m2
02:29 77.5 °F 75.4 °F 29.95 in Calm     93% 0.00 in 3.00 W/m2
02:34 77.5 °F 75.4 °F 29.95 in Calm     93% 0.00 in 3.00 W/m2
02:39 77.4 °F 75.2 °F 29.95 in Calm     93% 0.00 in 3.00 W/m2
02:44 77.4 °F 75.2 °F 29.95 in Calm     93% 0.00 in 3.00 W/m2
02:49 77.4 °F 75.2 °F 29.95 in Calm     93% 0.00 in 3.00 W/m2
02:54 77.4 °F 75.2 °F 29.95 in Calm     93% 0.00 in 3.00 W/m2
02:59 77.4 °F 75.2 °F 29.94 in Calm     93% 0.00 in 3.00 W/m2
03:04 77.4 °F 75.2 °F 29.95 in Calm     93% 0.00 in 3.00 W/m2
03:09 77.4 °F 75.2 °F 29.95 in Calm     93% 0.00 in 3.00 W/m2
03:14 77.2 °F 75.0 °F 29.94 in Calm     93% 0.00 in 3.00 W/m2
03:19 77.2 °F 75.0 °F 29.95 in Calm     93% 0.00 in 3.00 W/m2
03:24 77.2 °F 75.0 °F 29.94 in Calm     93% 0.01 in 3.00 W/m2
03:29 77.2 °F 75.0 °F 29.95 in Calm     93% 0.01 in 3.00 W/m2
03:34 77.2 °F 75.0 °F 29.94 in Calm     93% 0.01 in 3.00 W/m2
03:39 77.0 °F 74.8 °F 29.94 in Calm     93% 0.01 in 3.00 W/m2
03:44 77.0 °F 75.2 °F 29.94 in Calm     94% 0.01 in 3.00 W/m2
03:49 77.0 °F 75.2 °F 29.94 in Calm     94% 0.01 in 3.00 W/m2
03:54 77.0 °F 75.2 °F 29.93 in Calm     94% 0.01 in 3.00 W/m2
03:59 77.0 °F 75.2 °F 29.93 in Calm     94% 0.01 in 3.00 W/m2
04:04 77.0 °F 75.2 °F 29.93 in Calm     94% 0.01 in 3.00 W/m2
04:09 77.0 °F 75.2 °F 29.93 in Calm     94% 0.01 in 3.00 W/m2
04:14 77.0 °F 75.2 °F 29.94 in Calm     94% 0.01 in 3.00 W/m2
04:19 77.0 °F 75.2 °F 29.94 in Calm     94% 0.01 in 3.00 W/m2
04:24 77.0 °F 75.2 °F 29.94 in SSW 0.2 mph 2.5 mph 94% 0.00 in 3.00 W/m2
04:29 77.0 °F 75.2 °F 29.93 in Calm     94% 0.00 in 3.00 W/m2
04:34 77.0 °F 75.2 °F 29.93 in Calm     94% 0.00 in 3.00 W/m2
04:39 77.0 °F 75.2 °F 29.93 in Calm     94% 0.00 in 3.00 W/m2
04:44 77.0 °F 75.2 °F 29.94 in Calm     94% 0.00 in 3.00 W/m2
04:49 77.0 °F 75.2 °F 29.93 in Calm     94% 0.00 in 3.00 W/m2
04:54 77.0 °F 75.2 °F 29.93 in Calm     94% 0.00 in 3.00 W/m2
04:59 76.8 °F 75.0 °F 29.93 in Calm     94% 0.00 in 3.00 W/m2
05:04 76.8 °F 75.2 °F 29.94 in Calm     95% 0.00 in 3.00 W/m2
05:09 76.8 °F 75.2 °F 29.94 in Calm     95% 0.00 in 3.00 W/m2
05:14 76.8 °F 75.2 °F 29.93 in Calm     95% 0.00 in 3.00 W/m2
05:19 76.8 °F 75.0 °F 29.94 in Calm   2.5 mph 94% 0.00 in 3.00 W/m2
05:24 76.8 °F 75.0 °F 29.93 in Calm     94% 0.00 in 3.00 W/m2
05:29 76.8 °F 75.0 °F 29.95 in Calm     94% 0.00 in 3.00 W/m2
05:34 76.8 °F 75.0 °F 29.95 in Calm     94% 0.00 in 3.00 W/m2
05:39 76.8 °F 75.0 °F 29.95 in Calm     94% 0.00 in 3.00 W/m2
05:44 77.0 °F 75.2 °F 29.94 in Calm     94% 0.00 in 3.00 W/m2
05:49 77.0 °F 75.2 °F 29.94 in Calm     94% 0.00 in 3.00 W/m2
05:54 77.0 °F 75.2 °F 29.94 in Calm     94% 0.00 in 3.00 W/m2
05:59 77.0 °F 75.2 °F 29.94 in Calm     94% 0.00 in 3.00 W/m2
06:04 77.0 °F 75.2 °F 29.94 in Calm     94% 0.00 in 3.00 W/m2
06:09 77.0 °F 75.2 °F 29.94 in Calm     94% 0.00 in 3.00 W/m2
06:14 77.2 °F 75.4 °F 29.94 in Calm     94% 0.00 in 3.00 W/m2
06:19 77.2 °F 75.4 °F 29.95 in Calm     94% 0.00 in 3.00 W/m2
06:24 77.2 °F 75.4 °F 29.94 in Calm     94% 0.00 in 3.00 W/m2
06:29 77.2 °F 75.4 °F 29.95 in Calm     94% 0.00 in 3.00 W/m2
06:34 77.2 °F 75.4 °F 29.94 in Calm     94% 0.00 in 3.00 W/m2
06:39 77.2 °F 75.4 °F 29.94 in Calm     94% 0.00 in 4.00 W/m2
06:44 77.2 °F 75.4 °F 29.95 in Calm     94% 0.00 in 4.00 W/m2
06:49 77.2 °F 75.4 °F 29.94 in Calm     94% 0.00 in 5.00 W/m2
06:54 77.2 °F 75.4 °F 29.95 in Calm     94% 0.00 in 6.00 W/m2
06:59 77.2 °F 75.4 °F 29.95 in Calm     94% 0.00 in 8.00 W/m2
07:04 77.2 °F 75.4 °F 29.94 in Calm     94% 0.00 in 9.00 W/m2
07:09 77.2 °F 75.4 °F 29.95 in Calm     94% 0.00 in 11.00 W/m2
07:14 77.2 °F 75.4 °F 29.95 in Calm     94% 0.00 in 13.00 W/m2
07:19 77.2 °F 75.4 °F 29.96 in Calm     94% 0.00 in 14.00 W/m2
07:24 77.2 °F 75.4 °F 29.96 in Calm     94% 0.00 in 12.00 W/m2
07:29 77.2 °F 75.4 °F 29.96 in Calm     94% 0.00 in 11.00 W/m2
07:34 77.2 °F 75.4 °F 29.95 in Calm     94% 0.00 in 10.00 W/m2
07:39 77.4 °F 75.6 °F 29.95 in Calm     94% 0.00 in 10.00 W/m2
07:44 77.4 °F 75.6 °F 29.96 in Calm     94% 0.00 in 10.00 W/m2
07:49 77.4 °F 75.6 °F 29.96 in Calm     94% 0.00 in 11.00 W/m2
07:54 77.4 °F 75.6 °F 29.96 in Calm     94% 0.00 in 13.00 W/m2
07:59 77.5 °F 75.7 °F 29.96 in Calm     94% 0.00 in 14.00 W/m2
08:04 77.5 °F 75.7 °F 29.96 in Calm     94% 0.00 in 13.00 W/m2
08:09 77.7 °F 75.9 °F 29.96 in Calm     94% 0.00 in 13.00 W/m2
08:14 77.7 °F 75.9 °F 29.96 in Calm     94% 0.00 in 14.00 W/m2
Spring Hill, FL, USA
Compliments of Weather Underground - 2.5 mb